Middletown, CT (06457)

3:28 PM EDT on September 01, 2015 (GMT -0400)
Middletown Framing | | Change Station
CLOSE
Current Station
Personal Weather Station
Location: Middletown, CT
Elevation: 56 ft
Nearby Weather Stations

Elev 56 ft 41.56 °N, 72.65 °W | Updated 2 minutes ago

Clear
Clear
90.9 °F
Feels Like 89 °F
N
2.0
Wind Variable Wind from East
Gusts 4.0 mph

Today
High -- | Low -- °F
--% Chance of Precip.
Yesterday
High -- | Low -- °F
Precip. -- in
6:16 AM 7:24 PM
Waning Gibbous, 87% visible
Pressure 30.01 in
Visibility 10.0 miles
Clouds Clear
Heat Index 89 °F
Dew Point 57 °F
Humidity 32%
Rainfall 0.00 in
Snow Depth Not available.
UV 7 out of 12
Pollen 9.80 out of 12
Air Quality Not available.
Flu Activity Not available.
METAR KMMK 011853Z AUTO 08005KT 10SM CLR 32/13 A3002 RMK AO2 SLP163 T03170133 TSNO
Pressure 30.01 in
Visibility 10.0 miles
Clouds Clear
Heat Index 89 °F
Dew Point 57 °F
Humidity 32%
Rainfall 0.00 in
Snow Depth Not available.
UV 7 out of 12
Pollen 9.80 out of 12
Air Quality Not available.
Flu Activity Not available.
METAR KMMK 011853Z AUTO 08005KT 10SM CLR 32/13 A3002 RMK AO2 SLP163 T03170133 TSNO

10-Day Weather Forecast

×

Almanac

Astronomy

Sep. 01, 2015 Rise Set
Actual Time
Civil Twilight
Nautical Twilight
Astronomical Twilight
Moon
Length of Visible Light
Length of Day
Tomorrow will be .
, % of the Moon is Illuminated

Today's Extremes

State Highs State Lows

Community

WunderPhotos

Upload Photos

1,851,596 photos uploaded!

WunderBlogs® & News

Nearby

Air Quality

  Air Quality AQ Index Pollutant
Not available.

Snow Depth

Station Depth Elevation

Earthquake Activity

City Distance Mag. Time & Date
Minimum magnitude displayed is 2.5.

Coastal Water Temperatures

Place Temperature

Stations

Nearby Weather Stations

Station Location Temp. Windchill Dew Point Humidity Wind Precip. Elev Updated Type